createdAt,value
2017-09-09T00:00:23.812Z,89.00
2017-09-09T00:02:52.107Z,89.20
2017-09-09T00:05:21.104Z,89.20
2017-09-09T00:07:49.366Z,89.10
2017-09-09T00:10:17.801Z,89.30
2017-09-09T00:12:46.091Z,89.10
2017-09-09T00:15:14.371Z,88.50
2017-09-09T00:17:42.644Z,89.20
2017-09-09T00:20:11.672Z,88.80
2017-09-09T00:22:39.968Z,88.80
2017-09-09T00:25:09.059Z,88.70
2017-09-09T00:27:37.318Z,88.60
2017-09-09T00:30:05.577Z,88.70
2017-09-09T00:32:33.840Z,88.70
2017-09-09T00:35:02.837Z,88.80
2017-09-09T00:37:31.085Z,88.80
2017-09-09T00:40:00.091Z,88.20
2017-09-09T00:42:28.962Z,88.10
2017-09-09T00:44:57.237Z,88.50
2017-09-09T00:47:26.251Z,88.10
2017-09-09T00:49:55.298Z,88.70
2017-09-09T00:52:23.569Z,88.60
2017-09-09T00:54:51.888Z,88.30
2017-09-09T00:57:20.168Z,88.90
2017-09-09T00:59:48.417Z,88.40
2017-09-09T01:02:16.853Z,88.30
2017-09-09T01:04:45.065Z,88.40
2017-09-09T01:07:13.334Z,88.30
2017-09-09T01:09:41.571Z,88.20
2017-09-09T01:12:10.595Z,88.80
2017-09-09T01:14:38.851Z,88.80
2017-09-09T01:17:07.095Z,88.80
2017-09-09T01:19:35.371Z,88.90
2017-09-09T01:22:03.650Z,89.40
2017-09-09T01:24:31.894Z,89.20
2017-09-09T01:27:00.165Z,88.70
2017-09-09T01:29:28.460Z,88.30
2017-09-09T01:31:56.707Z,89.00
2017-09-09T01:34:24.998Z,89.10
2017-09-09T01:36:53.227Z,88.80
2017-09-09T01:39:21.448Z,88.60
2017-09-09T01:41:49.726Z,88.30
2017-09-09T01:44:17.925Z,88.10
2017-09-09T01:46:46.962Z,88.00
2017-09-09T01:49:15.970Z,88.20
2017-09-09T01:51:44.192Z,88.00
2017-09-09T01:54:12.435Z,88.10
2017-09-09T01:56:40.689Z,88.40
2017-09-09T01:59:09.696Z,87.40
2017-09-09T02:01:37.956Z,87.40
2017-09-09T02:04:06.212Z,88.10
2017-09-09T02:06:34.438Z,87.70
2017-09-09T02:09:02.703Z,87.80
2017-09-09T02:11:30.955Z,87.60
2017-09-09T02:13:59.958Z,87.90
2017-09-09T02:16:28.975Z,88.10
2017-09-09T02:18:57.213Z,88.10
2017-09-09T02:21:25.464Z,88.40
2017-09-09T02:23:53.721Z,88.50
2017-09-09T02:26:21.962Z,88.00
2017-09-09T02:28:50.230Z,87.90
2017-09-09T02:31:19.250Z,87.90
2017-09-09T02:33:47.526Z,87.90
2017-09-09T02:36:15.763Z,87.80
2017-09-09T02:38:44.835Z,88.10
2017-09-09T02:41:13.106Z,88.10
2017-09-09T02:43:42.119Z,87.60
2017-09-09T02:46:10.383Z,87.60
2017-09-09T02:48:38.619Z,87.80
2017-09-09T02:51:06.855Z,87.80
2017-09-09T02:53:35.116Z,88.00
2017-09-09T02:56:03.334Z,88.20
2017-09-09T02:58:32.343Z,88.20
2017-09-09T03:01:00.615Z,88.20
2017-09-09T03:03:28.890Z,88.00
2017-09-09T03:05:57.902Z,88.20
2017-09-09T03:08:26.149Z,88.10
2017-09-09T03:10:54.398Z,88.50
2017-09-09T03:13:22.660Z,88.60
2017-09-09T03:15:51.692Z,89.10
2017-09-09T03:18:20.690Z,89.20
2017-09-09T03:20:48.918Z,89.20
2017-09-09T03:23:17.179Z,89.20
2017-09-09T03:25:45.432Z,89.20
2017-09-09T03:28:14.444Z,89.20
2017-09-09T03:30:42.706Z,89.20
2017-09-09T03:33:11.716Z,89.10
2017-09-09T03:35:39.980Z,89.10
2017-09-09T03:38:08.207Z,89.50
2017-09-09T03:40:36.423Z,89.60
2017-09-09T03:43:05.466Z,89.60
2017-09-09T03:45:34.286Z,89.60
2017-09-09T03:48:02.536Z,89.70
2017-09-09T03:50:30.826Z,89.50
2017-09-09T03:52:59.066Z,89.80
2017-09-09T03:55:27.296Z,90.00
2017-09-09T03:57:55.523Z,90.00
2017-09-09T04:00:23.773Z,90.10
2017-09-09T04:02:52.811Z,90.20
2017-09-09T04:05:21.055Z,90.20
2017-09-09T04:07:49.318Z,90.50
2017-09-09T04:10:17.566Z,90.20
2017-09-09T04:12:46.579Z,90.20
2017-09-09T04:15:14.799Z,90.50
2017-09-09T04:17:43.029Z,90.40
2017-09-09T04:20:11.312Z,90.30
2017-09-09T04:22:39.584Z,90.60
2017-09-09T04:25:07.801Z,90.50
2017-09-09T04:27:36.831Z,90.60
2017-09-09T04:30:05.101Z,90.60
2017-09-09T04:32:34.123Z,90.30
2017-09-09T04:35:02.347Z,90.30
2017-09-09T04:37:30.631Z,90.10
2017-09-09T04:39:58.905Z,89.90
2017-09-09T04:42:27.142Z,90.20
2017-09-09T04:44:56.175Z,90.10
2017-09-09T04:47:24.412Z,90.10
2017-09-09T04:49:52.654Z,89.90
2017-09-09T04:52:21.686Z,88.90
2017-09-09T04:54:50.725Z,89.30
2017-09-09T04:57:18.976Z,89.20
2017-09-09T04:59:47.999Z,88.50
2017-09-09T05:02:16.867Z,88.50
2017-09-09T05:04:45.094Z,88.90
2017-09-09T05:07:14.132Z,88.80
2017-09-09T05:09:42.426Z,88.80
2017-09-09T05:12:11.094Z,89.10
2017-09-09T05:14:40.081Z,89.50
2017-09-09T05:17:09.161Z,89.10
2017-09-09T05:19:37.738Z,89.10
2017-09-09T05:22:05.982Z,89.40
2017-09-09T05:24:34.242Z,89.60
2017-09-09T05:27:02.486Z,90.00
2017-09-09T05:29:30.775Z,89.70
2017-09-09T05:31:59.795Z,90.00
2017-09-09T05:34:28.032Z,90.00
2017-09-09T05:36:56.322Z,90.00
2017-09-09T05:39:25.350Z,90.30
2017-09-09T05:41:54.383Z,90.00
2017-09-09T05:44:22.605Z,90.00
2017-09-09T05:46:50.866Z,90.20
2017-09-09T05:49:19.882Z,90.30
2017-09-09T05:51:48.142Z,90.30
2017-09-09T05:54:17.152Z,90.40
2017-09-09T05:56:45.426Z,90.40
2017-09-09T05:59:14.460Z,90.50
2017-09-09T06:01:43.494Z,91.10
2017-09-09T06:04:11.766Z,91.10
2017-09-09T06:06:40.780Z,91.20
2017-09-09T06:09:09.113Z,91.00
2017-09-09T06:11:37.419Z,89.50
2017-09-09T06:14:05.746Z,90.40
2017-09-09T06:16:33.978Z,89.90
2017-09-09T06:19:03.789Z,88.70
2017-09-09T06:21:32.825Z,89.70
2017-09-09T06:24:01.085Z,89.70
2017-09-09T06:26:29.339Z,89.00
2017-09-09T06:28:57.590Z,89.80
2017-09-09T06:31:25.866Z,89.40
2017-09-09T06:33:54.132Z,89.00
2017-09-09T06:36:23.157Z,90.00
2017-09-09T06:38:51.392Z,90.00
2017-09-09T06:41:20.439Z,89.50
2017-09-09T06:43:49.624Z,88.30
2017-09-09T06:46:17.902Z,88.30
2017-09-09T06:48:46.218Z,88.10
2017-09-09T06:51:14.535Z,88.60
2017-09-09T06:53:42.786Z,89.20
2017-09-09T06:56:11.058Z,88.80
2017-09-09T06:58:39.476Z,89.10
2017-09-09T07:01:07.751Z,89.00
2017-09-09T07:03:36.092Z,89.60
2017-09-09T07:06:04.329Z,90.00
2017-09-09T07:08:32.609Z,90.20
2017-09-09T07:11:00.852Z,90.20
2017-09-09T07:13:29.892Z,90.00
2017-09-09T07:15:58.926Z,90.30
2017-09-09T07:18:27.182Z,90.30
2017-09-09T07:20:56.231Z,89.90
2017-09-09T07:23:24.488Z,89.80
2017-09-09T07:25:52.854Z,89.10
2017-09-09T07:28:21.078Z,89.60
2017-09-09T07:30:49.328Z,89.50
2017-09-09T07:33:17.574Z,89.50
2017-09-09T07:35:45.856Z,89.40
2017-09-09T07:38:14.070Z,88.60
2017-09-09T07:40:42.308Z,88.20
2017-09-09T07:43:10.567Z,88.00
2017-09-09T07:45:39.580Z,87.50
2017-09-09T07:48:07.823Z,87.50
2017-09-09T07:50:36.114Z,88.00
2017-09-09T07:53:04.419Z,87.50
2017-09-09T07:55:32.657Z,87.00
2017-09-09T07:58:00.933Z,86.00
2017-09-09T08:00:29.935Z,85.50
2017-09-09T08:02:58.226Z,85.50
2017-09-09T08:05:26.517Z,85.10
2017-09-09T08:07:54.794Z,85.40
2017-09-09T08:10:23.021Z,83.80
2017-09-09T08:12:51.299Z,84.10
2017-09-09T08:15:19.545Z,84.10
2017-09-09T08:17:47.888Z,84.20
2017-09-09T08:20:16.154Z,83.80
2017-09-09T08:22:45.222Z,82.30
2017-09-09T08:25:13.487Z,82.30
2017-09-09T08:27:41.748Z,81.90
2017-09-09T08:30:10.022Z,83.30
2017-09-09T08:32:38.253Z,82.70
2017-09-09T08:35:06.519Z,84.30
2017-09-09T08:37:35.545Z,84.80
2017-09-09T08:40:03.844Z,84.80
2017-09-09T08:42:32.112Z,84.20
2017-09-09T08:45:00.387Z,84.50
2017-09-09T08:47:28.678Z,84.80
2017-09-09T08:49:56.904Z,83.60
2017-09-09T08:52:25.914Z,82.90
2017-09-09T08:54:54.173Z,82.80
2017-09-09T08:57:23.226Z,83.50
2017-09-09T08:59:51.503Z,83.50
2017-09-09T09:02:20.532Z,82.10
2017-09-09T09:04:48.770Z,82.10
2017-09-09T09:07:17.051Z,82.20
2017-09-09T09:09:45.300Z,81.50
2017-09-09T09:12:13.560Z,80.30
2017-09-09T09:14:42.598Z,81.30
2017-09-09T09:17:10.868Z,81.20
2017-09-09T09:19:39.159Z,80.40
2017-09-09T09:22:07.399Z,78.90
2017-09-09T09:24:35.819Z,79.20
2017-09-09T09:27:04.058Z,80.90
2017-09-09T09:29:32.305Z,81.40
2017-09-09T09:32:01.335Z,80.90
2017-09-09T09:34:29.623Z,80.80
2017-09-09T09:36:57.907Z,79.20
2017-09-09T09:39:26.445Z,79.70
2017-09-09T09:41:54.694Z,78.80
2017-09-09T09:44:23.098Z,77.10
2017-09-09T09:46:52.183Z,77.60
2017-09-09T09:49:20.474Z,77.40
2017-09-09T09:51:49.556Z,75.80
2017-09-09T09:54:17.869Z,75.70
2017-09-09T09:56:46.909Z,76.80
2017-09-09T09:59:15.170Z,76.80
2017-09-09T10:01:44.209Z,76.60
2017-09-09T10:04:12.545Z,76.10
2017-09-09T10:06:40.856Z,75.80
2017-09-09T10:09:09.148Z,74.90
2017-09-09T10:11:38.157Z,73.40
2017-09-09T10:14:06.417Z,73.30
2017-09-09T10:16:34.680Z,73.20
2017-09-09T10:19:02.952Z,71.50
2017-09-09T10:21:31.217Z,73.00
2017-09-09T10:23:59.533Z,72.60
2017-09-09T10:26:28.419Z,72.40
2017-09-09T10:28:56.705Z,71.80
2017-09-09T10:31:25.745Z,69.10
2017-09-09T10:33:54.020Z,69.10
2017-09-09T10:36:22.314Z,70.80
2017-09-09T10:38:50.625Z,72.20
2017-09-09T10:41:18.918Z,72.60
2017-09-09T10:43:47.184Z,72.20
2017-09-09T10:46:16.188Z,72.60
2017-09-09T10:48:44.437Z,72.50
2017-09-09T10:51:12.756Z,74.20
2017-09-09T10:53:41.074Z,75.40
2017-09-09T10:56:09.342Z,80.80
2017-09-09T10:58:37.620Z,80.30
2017-09-09T11:01:05.844Z,83.70
2017-09-09T11:03:34.075Z,82.10
2017-09-09T11:06:02.368Z,83.30
2017-09-09T11:08:30.699Z,82.10
2017-09-09T11:10:58.987Z,84.10
2017-09-09T11:13:27.253Z,82.80
2017-09-09T11:15:55.575Z,83.30
2017-09-09T11:18:24.748Z,79.80
2017-09-09T11:20:53.130Z,79.80
2017-09-09T11:23:22.166Z,76.90
2017-09-09T11:25:51.257Z,78.30
2017-09-09T11:28:19.546Z,78.30
2017-09-09T11:30:47.795Z,79.60
2017-09-09T11:33:16.085Z,81.40
2017-09-09T11:35:45.171Z,82.20
2017-09-09T11:38:13.461Z,82.20
2017-09-09T11:40:41.710Z,82.10
2017-09-09T11:43:10.775Z,80.10
2017-09-09T11:45:39.774Z,80.00
2017-09-09T11:48:08.078Z,79.90
2017-09-09T11:50:36.314Z,79.90
2017-09-09T11:53:05.356Z,79.00
2017-09-09T11:55:33.607Z,79.00
2017-09-09T11:58:01.841Z,77.60
2017-09-09T12:00:30.117Z,78.50
2017-09-09T12:02:59.137Z,76.50
2017-09-09T12:05:28.187Z,76.90
2017-09-09T12:07:56.477Z,76.90
2017-09-09T12:10:24.774Z,75.00
2017-09-09T12:12:53.008Z,76.80
2017-09-09T12:15:21.319Z,77.80
2017-09-09T12:17:49.608Z,76.20
2017-09-09T12:20:17.945Z,77.10
2017-09-09T12:22:46.217Z,78.50
2017-09-09T12:25:14.464Z,75.60
2017-09-09T12:27:42.746Z,75.70
2017-09-09T12:30:11.045Z,75.20
2017-09-09T12:32:39.431Z,72.60
2017-09-09T12:35:07.678Z,74.80
2017-09-09T12:37:35.934Z,75.50
2017-09-09T12:40:04.237Z,70.70
2017-09-09T12:42:33.227Z,70.20
2017-09-09T12:45:02.285Z,70.50
2017-09-09T12:47:30.571Z,71.00
2017-09-09T12:49:58.827Z,70.70
2017-09-09T12:52:27.841Z,70.00
2017-09-09T12:54:56.872Z,70.70
2017-09-09T12:57:25.170Z,70.00
2017-09-09T12:59:53.449Z,69.80
2017-09-09T13:02:21.724Z,71.20
2017-09-09T13:04:49.992Z,72.60
2017-09-09T13:07:18.254Z,69.80
2017-09-09T13:09:46.536Z,70.00
2017-09-09T13:12:14.795Z,69.80
2017-09-09T13:14:43.056Z,67.70
2017-09-09T13:17:11.364Z,68.20
2017-09-09T13:19:39.672Z,68.80
2017-09-09T13:22:08.735Z,67.80
2017-09-09T13:24:36.998Z,67.80
2017-09-09T13:27:05.307Z,67.40
2017-09-09T13:29:33.576Z,68.90
2017-09-09T13:32:02.174Z,69.70
2017-09-09T13:34:30.458Z,68.20
2017-09-09T13:36:58.730Z,70.00
2017-09-09T13:39:27.060Z,69.60
2017-09-09T13:41:55.304Z,71.20
2017-09-09T13:44:23.575Z,70.80
2017-09-09T13:46:51.855Z,71.30
2017-09-09T13:49:20.139Z,70.40
2017-09-09T13:51:48.399Z,69.80
2017-09-09T13:54:16.875Z,69.70
2017-09-09T13:56:45.097Z,68.00
2017-09-09T13:59:13.387Z,67.30
2017-09-09T14:01:42.731Z,66.30
2017-09-09T14:04:11.185Z,66.30
2017-09-09T14:06:39.476Z,67.50
2017-09-09T14:09:08.545Z,69.60
2017-09-09T14:11:37.558Z,70.80
2017-09-09T14:14:05.814Z,70.80
2017-09-09T14:16:34.163Z,72.60
2017-09-09T14:19:02.403Z,73.80
2017-09-09T14:21:30.724Z,75.20
2017-09-09T14:23:59.726Z,76.70
2017-09-09T14:26:28.421Z,76.70
2017-09-09T14:28:57.267Z,76.60
2017-09-09T14:31:25.870Z,75.40
2017-09-09T14:33:54.880Z,73.10
2017-09-09T14:36:23.150Z,73.10
2017-09-09T14:38:51.419Z,71.90
2017-09-09T14:41:20.465Z,72.20
2017-09-09T14:43:48.771Z,72.20
2017-09-09T14:46:17.029Z,72.70
2017-09-09T14:48:45.329Z,71.60
2017-09-09T14:51:13.605Z,71.90
2017-09-09T14:53:41.854Z,70.70
2017-09-09T14:56:10.142Z,74.20
2017-09-09T14:58:38.526Z,74.20
2017-09-09T15:01:06.798Z,72.80
2017-09-09T15:03:35.100Z,71.10
2017-09-09T15:06:03.368Z,71.80
2017-09-09T15:08:31.634Z,69.50
2017-09-09T15:10:59.925Z,69.80
2017-09-09T15:13:28.189Z,69.50
2017-09-09T15:15:57.265Z,68.50
2017-09-09T15:18:25.551Z,68.00
2017-09-09T15:20:53.774Z,68.70
2017-09-09T15:23:22.072Z,66.10
2017-09-09T15:25:50.365Z,66.30
2017-09-09T15:28:18.641Z,66.60
2017-09-09T15:30:46.923Z,65.20
2017-09-09T15:33:15.961Z,66.90
2017-09-09T15:35:44.265Z,66.90
2017-09-09T15:38:12.524Z,66.20
2017-09-09T15:40:40.795Z,66.60
2017-09-09T15:43:09.053Z,66.10
2017-09-09T15:45:37.402Z,65.40
2017-09-09T15:48:05.639Z,65.70
2017-09-09T15:50:33.915Z,66.40
2017-09-09T15:53:02.183Z,66.60
2017-09-09T15:55:30.447Z,66.90
2017-09-09T15:57:58.747Z,67.60
2017-09-09T16:00:27.816Z,67.40
2017-09-09T16:02:56.117Z,67.20
2017-09-09T16:05:24.406Z,66.10
2017-09-09T16:07:52.674Z,66.20
2017-09-09T16:10:20.978Z,65.80
2017-09-09T16:12:49.226Z,66.80
2017-09-09T16:15:17.481Z,66.00
2017-09-09T16:17:45.797Z,66.40
2017-09-09T16:20:14.051Z,66.30
2017-09-09T16:22:42.346Z,67.00
2017-09-09T16:25:10.606Z,67.50
2017-09-09T16:27:38.887Z,67.10
2017-09-09T16:30:07.164Z,67.80
2017-09-09T16:32:36.184Z,67.30
2017-09-09T16:35:04.459Z,67.20
2017-09-09T16:37:32.727Z,67.70
2017-09-09T16:40:00.981Z,68.10
2017-09-09T16:42:29.261Z,68.90
2017-09-09T16:44:57.518Z,68.80
2017-09-09T16:47:25.793Z,70.10
2017-09-09T16:49:54.040Z,68.40
2017-09-09T16:52:22.291Z,70.10
2017-09-09T16:54:51.317Z,70.40
2017-09-09T16:57:19.552Z,70.30
2017-09-09T16:59:47.851Z,71.50
2017-09-09T17:02:16.158Z,69.90
2017-09-09T17:04:44.836Z,70.30
2017-09-09T17:07:13.095Z,70.90
2017-09-09T17:09:41.337Z,71.50
2017-09-09T17:12:09.573Z,71.20
2017-09-09T17:14:37.846Z,71.80
2017-09-09T17:17:06.092Z,71.60
2017-09-09T17:19:34.897Z,71.20
2017-09-09T17:22:03.153Z,71.60
2017-09-09T17:24:31.462Z,72.70
2017-09-09T17:26:59.708Z,73.00
2017-09-09T17:29:27.973Z,72.90
2017-09-09T17:31:56.222Z,73.20
2017-09-09T17:34:24.527Z,74.80
2017-09-09T17:36:52.828Z,74.50
2017-09-09T17:39:21.075Z,75.70
2017-09-09T17:41:49.366Z,76.40
2017-09-09T17:44:17.663Z,77.30
2017-09-09T17:46:45.904Z,78.00
2017-09-09T17:49:14.179Z,78.90
2017-09-09T17:51:42.441Z,79.20
2017-09-09T17:54:10.689Z,79.00
2017-09-09T17:56:38.970Z,78.50
2017-09-09T17:59:07.205Z,78.00
2017-09-09T18:01:35.474Z,77.90
2017-09-09T18:04:03.746Z,77.60
2017-09-09T18:06:32.008Z,77.70
2017-09-09T18:09:00.290Z,77.20
2017-09-09T18:11:28.562Z,78.10
2017-09-09T18:13:57.563Z,80.20
2017-09-09T18:16:25.849Z,80.20
2017-09-09T18:18:54.098Z,80.70
2017-09-09T18:21:23.145Z,80.50
2017-09-09T18:23:52.198Z,80.30
2017-09-09T18:26:21.241Z,80.40
2017-09-09T18:28:49.486Z,80.20
2017-09-09T18:31:17.755Z,80.20
2017-09-09T18:33:46.785Z,80.40
2017-09-09T18:36:15.027Z,80.40
2017-09-09T18:38:43.353Z,79.30
2017-09-09T18:41:11.576Z,81.20
2017-09-09T18:43:39.867Z,83.10
2017-09-09T18:46:08.098Z,84.10
2017-09-09T18:48:36.344Z,82.40
2017-09-09T18:51:04.616Z,82.80
2017-09-09T18:53:33.673Z,84.50
2017-09-09T18:56:02.716Z,85.10
2017-09-09T18:58:31.036Z,85.10
2017-09-09T19:00:59.304Z,85.50
2017-09-09T19:03:28.352Z,86.70
2017-09-09T19:05:56.604Z,86.70
2017-09-09T19:08:24.917Z,86.90
2017-09-09T19:10:53.189Z,86.80
2017-09-09T19:13:21.503Z,86.70
2017-09-09T19:15:49.767Z,87.10
2017-09-09T19:18:18.007Z,87.90
2017-09-09T19:20:46.269Z,87.70
2017-09-09T19:23:14.535Z,87.50
2017-09-09T19:25:42.797Z,87.60
2017-09-09T19:28:11.066Z,87.30
2017-09-09T19:30:39.318Z,87.20
2017-09-09T19:33:07.621Z,86.80
2017-09-09T19:35:35.899Z,86.70
2017-09-09T19:38:04.173Z,85.90
2017-09-09T19:40:32.447Z,86.00
2017-09-09T19:43:00.833Z,84.90
2017-09-09T19:45:29.334Z,84.10
2017-09-09T19:47:57.607Z,84.00
2017-09-09T19:50:25.897Z,85.20
2017-09-09T19:52:54.756Z,85.50
2017-09-09T19:55:33.917Z,86.50
2017-09-09T19:58:02.218Z,86.50
2017-09-09T20:00:30.479Z,86.70
2017-09-09T20:02:58.760Z,87.50
2017-09-09T20:05:27.028Z,88.10
2017-09-09T20:07:55.294Z,89.00
2017-09-09T20:10:23.592Z,88.10
2017-09-09T20:12:51.871Z,87.00
2017-09-09T20:15:20.187Z,86.80
2017-09-09T20:17:48.495Z,87.40
2017-09-09T20:20:16.827Z,88.20
2017-09-09T20:22:45.091Z,88.80
2017-09-09T20:25:13.400Z,88.90
2017-09-09T20:27:41.694Z,89.00
2017-09-09T20:30:09.982Z,89.70
2017-09-09T20:32:38.291Z,89.90
2017-09-09T20:35:06.560Z,90.00
2017-09-09T20:37:35.573Z,89.20
2017-09-09T20:40:03.842Z,89.20
2017-09-09T20:42:32.087Z,89.40
2017-09-09T20:45:00.393Z,89.30
2017-09-09T20:47:29.425Z,89.10
2017-09-09T20:49:58.436Z,89.40
2017-09-09T20:52:26.693Z,89.40
2017-09-09T20:54:55.727Z,89.20
2017-09-09T20:57:24.003Z,89.20
2017-09-09T20:59:52.294Z,89.80
2017-09-09T21:02:21.363Z,89.20
2017-09-09T21:04:50.411Z,89.20
2017-09-09T21:07:18.715Z,89.10
2017-09-09T21:09:47.023Z,89.20
2017-09-09T21:12:15.257Z,89.30
2017-09-09T21:14:43.548Z,90.00
2017-09-09T21:17:11.916Z,90.10
2017-09-09T21:19:40.167Z,90.20
2017-09-09T21:22:08.967Z,90.20
2017-09-09T21:24:37.240Z,90.00
2017-09-09T21:27:05.484Z,90.20
2017-09-09T21:29:34.632Z,90.20
2017-09-09T21:32:02.896Z,90.20
2017-09-09T21:34:31.150Z,90.40
2017-09-09T21:37:00.327Z,90.40
2017-09-09T21:39:28.620Z,90.30
2017-09-09T21:41:57.647Z,90.50
2017-09-09T21:44:25.963Z,90.40
2017-09-09T21:46:54.249Z,90.70
2017-09-09T21:49:22.503Z,90.70
2017-09-09T21:51:50.779Z,90.80
2017-09-09T21:54:19.795Z,90.00
2017-09-09T21:56:48.047Z,90.00
2017-09-09T21:59:16.311Z,90.00
2017-09-09T22:01:44.559Z,90.30
2017-09-09T22:04:12.805Z,90.20
2017-09-09T22:06:41.831Z,90.80
2017-09-09T22:09:10.130Z,90.50
2017-09-09T22:11:38.362Z,90.60
2017-09-09T22:14:07.425Z,90.50
2017-09-09T22:16:35.652Z,90.50
2017-09-09T22:19:03.928Z,90.60
2017-09-09T22:21:32.999Z,90.30
2017-09-09T22:24:01.241Z,90.30
2017-09-09T22:26:29.525Z,90.40
2017-09-09T22:28:57.814Z,90.40
2017-09-09T22:31:26.038Z,90.50
2017-09-09T22:33:55.072Z,90.90
2017-09-09T22:36:23.372Z,90.60
2017-09-09T22:38:51.617Z,90.70
2017-09-09T22:41:19.912Z,90.80
2017-09-09T22:43:48.929Z,90.90
2017-09-09T22:46:17.247Z,90.90
2017-09-09T22:48:45.547Z,91.00
2017-09-09T22:51:13.835Z,91.20
2017-09-09T22:53:42.124Z,91.00
2017-09-09T22:56:11.151Z,91.50
2017-09-09T22:58:39.409Z,91.20
2017-09-09T23:01:07.670Z,91.20
2017-09-09T23:03:35.974Z,91.50
2017-09-09T23:06:05.009Z,91.50
2017-09-09T23:08:33.275Z,91.50
2017-09-09T23:11:01.533Z,91.50
2017-09-09T23:13:30.553Z,91.40
2017-09-09T23:15:58.845Z,91.40
2017-09-09T23:18:27.096Z,91.10
2017-09-09T23:20:56.107Z,90.60
2017-09-09T23:23:24.390Z,90.60
2017-09-09T23:25:52.703Z,90.60
2017-09-09T23:28:20.978Z,90.40
2017-09-09T23:30:49.255Z,90.00
2017-09-09T23:33:17.530Z,90.10
2017-09-09T23:35:45.766Z,90.10
2017-09-09T23:38:14.042Z,90.40
2017-09-09T23:40:42.311Z,90.20
2017-09-09T23:43:11.371Z,90.30
2017-09-09T23:45:39.646Z,90.30
2017-09-09T23:48:07.916Z,90.30
2017-09-09T23:50:36.248Z,90.40
2017-09-09T23:53:04.500Z,90.70
2017-09-09T23:55:32.756Z,90.80
2017-09-09T23:58:00.990Z,90.60
